createdAt,value
2023-10-07T00:02:18.864Z,5.85
2023-10-07T00:04:46.891Z,5.47
2023-10-07T00:07:16.334Z,6.28
2023-10-07T00:09:51.631Z,5.95
2023-10-07T00:12:20.572Z,5.90
2023-10-07T00:14:48.499Z,6.35
2023-10-07T00:17:19.644Z,5.65
2023-10-07T00:19:49.193Z,6.38
2023-10-07T00:22:20.897Z,5.80
2023-10-07T00:24:50.199Z,5.85
2023-10-07T00:27:39.228Z,5.78
2023-10-07T00:30:14.674Z,5.13
2023-10-07T00:32:43.161Z,5.65
2023-10-07T00:35:12.833Z,6.10
2023-10-07T00:37:45.282Z,5.82
2023-10-07T00:40:16.123Z,5.32
2023-10-07T00:42:46.471Z,6.47
2023-10-07T00:45:17.852Z,5.00
2023-10-07T00:47:51.164Z,6.45
2023-10-07T00:50:19.320Z,5.40
2023-10-07T00:52:56.019Z,5.53
2023-10-07T00:55:38.663Z,5.43
2023-10-07T00:58:09.273Z,5.82
2023-10-07T01:00:40.237Z,6.38
2023-10-07T01:03:18.477Z,6.47
2023-10-07T01:06:02.356Z,5.88
2023-10-07T01:08:48.411Z,6.45
2023-10-07T01:11:19.590Z,6.00
2023-10-07T01:13:58.146Z,6.10
2023-10-07T01:16:47.980Z,5.97
2023-10-07T01:19:19.667Z,6.10
2023-10-07T01:22:12.967Z,6.32
2023-10-07T01:24:40.792Z,7.45
2023-10-07T01:27:31.105Z,6.28
2023-10-07T01:30:03.856Z,5.78
2023-10-07T01:32:35.518Z,6.65
2023-10-07T01:35:12.388Z,6.25
2023-10-07T01:37:50.030Z,5.80
2023-10-07T01:40:18.646Z,6.95
2023-10-07T01:42:46.672Z,6.45
2023-10-07T01:45:23.821Z,6.25
2023-10-07T01:47:56.942Z,7.70
2023-10-07T01:50:26.046Z,6.93
2023-10-07T01:52:57.493Z,7.13
2023-10-07T01:55:29.540Z,6.72
2023-10-07T01:57:57.875Z,7.03
2023-10-07T02:00:44.369Z,7.07
2023-10-07T02:03:25.195Z,7.18
2023-10-07T02:05:54.170Z,6.55
2023-10-07T02:08:24.737Z,7.05
2023-10-07T02:11:02.189Z,6.80
2023-10-07T02:13:32.988Z,6.68
2023-10-07T02:16:06.834Z,6.47
2023-10-07T02:18:36.942Z,6.45
2023-10-07T02:21:15.073Z,6.63
2023-10-07T02:23:44.957Z,6.80
2023-10-07T02:26:21.275Z,6.88
2023-10-07T02:28:54.775Z,6.45
2023-10-07T02:31:24.994Z,6.97
2023-10-07T02:33:53.810Z,6.35
2023-10-07T02:36:29.710Z,6.47
2023-10-07T02:39:20.358Z,6.40
2023-10-07T02:41:49.288Z,7.25
2023-10-07T02:44:29.638Z,5.90
2023-10-07T02:46:58.197Z,6.18
2023-10-07T02:49:27.488Z,7.10
2023-10-07T02:51:58.541Z,6.65
2023-10-07T02:54:34.532Z,6.50
2023-10-07T02:57:21.331Z,6.13
2023-10-07T02:59:52.504Z,6.95
2023-10-07T03:02:38.372Z,6.07
2023-10-07T03:05:12.972Z,6.28
2023-10-07T03:07:50.869Z,6.78
2023-10-07T03:10:19.966Z,6.97
2023-10-07T03:12:49.990Z,6.55
2023-10-07T03:15:28.137Z,7.38
2023-10-07T03:17:56.926Z,7.90
2023-10-07T03:20:29.694Z,6.90
2023-10-07T03:23:19.200Z,7.13
2023-10-07T03:26:10.091Z,6.70
2023-10-07T03:28:38.692Z,8.85
2023-10-07T03:31:12.451Z,7.70
2023-10-07T03:33:45.433Z,6.70
2023-10-07T03:36:32.329Z,7.53
2023-10-07T03:39:18.890Z,6.80
2023-10-07T03:41:49.582Z,8.07
2023-10-07T03:44:19.345Z,7.90
2023-10-07T03:46:49.819Z,6.80
2023-10-07T03:49:22.444Z,7.68
2023-10-07T03:52:04.737Z,7.40
2023-10-07T03:54:33.042Z,6.95
2023-10-07T03:57:04.270Z,7.13
2023-10-07T03:59:33.539Z,6.78
2023-10-07T04:02:24.471Z,6.20
2023-10-07T04:05:02.293Z,6.38
2023-10-07T04:07:32.759Z,5.72
2023-10-07T04:10:14.262Z,7.03
2023-10-07T04:12:42.172Z,7.30
2023-10-07T04:15:14.542Z,6.28
2023-10-07T04:17:44.742Z,6.63
2023-10-07T04:20:19.955Z,6.25
2023-10-07T04:23:02.352Z,6.43
2023-10-07T04:25:41.212Z,6.47
2023-10-07T04:28:09.345Z,6.97
2023-10-07T04:30:48.952Z,6.55
2023-10-07T04:33:27.095Z,6.72
2023-10-07T04:36:01.704Z,7.13
2023-10-07T04:38:40.612Z,6.75
2023-10-07T04:41:37.944Z,7.10
2023-10-07T04:44:44.228Z,6.90
2023-10-07T04:47:36.326Z,7.30
2023-10-07T04:50:17.055Z,6.57
2023-10-07T04:52:52.104Z,6.55
2023-10-07T04:55:27.727Z,6.53
2023-10-07T04:57:55.740Z,6.93
2023-10-07T05:00:33.338Z,6.97
2023-10-07T05:03:04.347Z,7.93
2023-10-07T05:05:34.795Z,7.93
2023-10-07T05:08:19.422Z,7.68
2023-10-07T05:10:54.726Z,7.60
2023-10-07T05:13:22.976Z,7.20
2023-10-07T05:15:51.142Z,7.72
2023-10-07T05:18:19.109Z,8.55
2023-10-07T05:20:50.071Z,7.53
2023-10-07T05:23:18.994Z,8.45
2023-10-07T05:25:50.707Z,7.43
2023-10-07T05:28:23.074Z,8.50
2023-10-07T05:30:52.794Z,8.73
2023-10-07T05:33:26.175Z,7.50
2023-10-07T05:36:15.255Z,7.90
2023-10-07T05:38:54.498Z,7.57
2023-10-07T05:41:26.560Z,7.93
2023-10-07T05:43:54.567Z,7.50
2023-10-07T05:46:22.555Z,8.15
2023-10-07T05:48:52.661Z,8.40
2023-10-07T05:51:20.549Z,8.70
2023-10-07T05:53:53.002Z,8.00
2023-10-07T05:56:21.230Z,8.48
2023-10-07T05:58:49.938Z,8.85
2023-10-07T06:01:20.145Z,8.02
2023-10-07T06:03:56.810Z,8.40
2023-10-07T06:06:25.786Z,7.55
2023-10-07T06:09:04.901Z,7.68
2023-10-07T06:11:34.106Z,7.53
2023-10-07T06:14:06.021Z,8.73
2023-10-07T06:16:34.944Z,8.20
2023-10-07T06:19:04.268Z,8.65
2023-10-07T06:21:33.466Z,8.27
2023-10-07T06:24:08.871Z,8.23
2023-10-07T06:26:38.273Z,7.95
2023-10-07T06:29:20.368Z,7.00
2023-10-07T06:32:19.350Z,6.60
2023-10-07T06:34:47.950Z,7.05
2023-10-07T06:37:16.484Z,6.72
2023-10-07T06:39:44.865Z,7.35
2023-10-07T06:42:13.193Z,6.97
2023-10-07T06:44:44.794Z,7.32
2023-10-07T06:47:13.916Z,6.80
2023-10-07T06:49:42.231Z,8.15
2023-10-07T06:52:14.129Z,9.10
2023-10-07T06:54:51.968Z,8.30
2023-10-07T06:57:30.960Z,9.02
2023-10-07T06:59:59.563Z,9.45
2023-10-07T07:02:36.377Z,9.73
2023-10-07T07:05:13.140Z,11.40
2023-10-07T07:07:43.316Z,10.35
2023-10-07T07:10:18.035Z,10.27
2023-10-07T07:12:46.633Z,10.52
2023-10-07T07:15:28.177Z,11.35
2023-10-07T07:18:15.394Z,10.80
2023-10-07T07:21:11.352Z,9.82
2023-10-07T07:23:44.751Z,9.55
2023-10-07T07:26:14.266Z,9.70
2023-10-07T07:28:45.550Z,10.00
2023-10-07T07:31:21.281Z,9.35
2023-10-07T07:33:49.958Z,10.55
2023-10-07T07:36:43.422Z,9.68
2023-10-07T07:39:19.269Z,10.65
2023-10-07T07:41:57.527Z,10.95
2023-10-07T07:44:35.341Z,10.60
2023-10-07T07:47:05.000Z,10.70
2023-10-07T07:49:34.750Z,10.05
2023-10-07T07:52:04.357Z,9.05
2023-10-07T07:54:33.111Z,10.20
2023-10-07T07:57:06.102Z,9.38
2023-10-07T07:59:34.844Z,10.67
2023-10-07T08:02:14.400Z,9.60
2023-10-07T08:04:47.622Z,9.02
2023-10-07T08:07:26.135Z,9.80
2023-10-07T08:09:59.408Z,9.25
2023-10-07T08:12:32.893Z,9.85
2023-10-07T08:15:16.413Z,9.18
2023-10-07T08:17:48.202Z,8.75
2023-10-07T08:20:23.796Z,8.77
2023-10-07T08:22:53.643Z,9.07
2023-10-07T08:26:01.601Z,8.00
2023-10-07T08:28:48.758Z,8.68
2023-10-07T08:31:20.164Z,9.60
2023-10-07T08:33:55.643Z,8.80
2023-10-07T08:36:30.826Z,8.90
2023-10-07T08:39:06.377Z,9.23
2023-10-07T08:41:35.063Z,9.00
2023-10-07T08:44:17.132Z,9.25
2023-10-07T08:46:54.250Z,8.70
2023-10-07T08:49:27.262Z,9.48
2023-10-07T08:51:57.052Z,8.13
2023-10-07T08:54:33.518Z,8.15
2023-10-07T08:57:10.603Z,8.50
2023-10-07T08:59:39.502Z,7.63
2023-10-07T09:02:18.661Z,9.20
2023-10-07T09:04:47.393Z,9.10
2023-10-07T09:07:19.692Z,8.07
2023-10-07T09:09:50.380Z,8.43
2023-10-07T09:12:41.027Z,8.52
2023-10-07T09:15:16.116Z,8.57
2023-10-07T09:17:47.116Z,9.73
2023-10-07T09:20:19.479Z,8.80
2023-10-07T09:22:55.274Z,9.05
2023-10-07T09:25:32.830Z,9.68
2023-10-07T09:28:03.406Z,9.27
2023-10-07T09:30:46.820Z,9.60
2023-10-07T09:33:20.806Z,9.85
2023-10-07T09:39:06.959Z,8.88
2023-10-07T09:41:35.947Z,10.10
2023-10-07T09:44:11.362Z,8.90
2023-10-07T09:46:43.074Z,9.13
2023-10-07T09:49:16.146Z,8.93
2023-10-07T09:51:52.429Z,9.88
2023-10-07T09:55:20.382Z,8.95
2023-10-07T09:58:05.612Z,9.30
2023-10-07T10:01:08.294Z,9.65
2023-10-07T10:04:07.550Z,10.73
2023-10-07T10:07:11.966Z,9.93
2023-10-07T10:09:59.310Z,10.88
2023-10-07T10:12:50.416Z,11.18
2023-10-07T10:15:21.927Z,10.63
2023-10-07T10:17:57.245Z,9.75
2023-10-07T10:20:44.500Z,11.20
2023-10-07T10:23:21.418Z,12.40
2023-10-07T10:25:54.747Z,13.18
2023-10-07T10:28:29.468Z,12.15
2023-10-07T10:30:58.059Z,12.15
2023-10-07T10:33:30.107Z,13.00
2023-10-07T10:36:03.008Z,13.15
2023-10-07T10:38:42.460Z,12.45
2023-10-07T10:41:12.396Z,13.27
2023-10-07T10:43:41.305Z,13.93
2023-10-07T10:46:09.907Z,13.23
2023-10-07T10:48:40.545Z,14.15
2023-10-07T10:51:09.748Z,13.52
2023-10-07T10:53:42.721Z,12.43
2023-10-07T10:56:12.476Z,12.27
2023-10-07T10:58:41.121Z,12.00
2023-10-07T11:01:09.643Z,12.93
2023-10-07T11:03:38.934Z,11.20
2023-10-07T11:06:08.018Z,12.32
2023-10-07T11:08:39.082Z,13.15
2023-10-07T11:11:15.905Z,14.27
2023-10-07T11:13:46.052Z,13.32
2023-10-07T11:16:18.201Z,13.90
2023-10-07T11:18:48.913Z,13.95
2023-10-07T11:21:23.074Z,13.27
2023-10-07T11:26:34.238Z,15.02
2023-10-07T11:29:16.279Z,12.45
2023-10-07T11:31:48.257Z,14.48
2023-10-07T11:34:21.387Z,15.20
2023-10-07T11:36:52.325Z,15.82
2023-10-07T11:39:29.972Z,14.27
2023-10-07T11:42:03.210Z,15.48
2023-10-07T11:44:33.392Z,15.82
2023-10-07T11:47:08.637Z,16.02
2023-10-07T11:49:59.264Z,15.32
2023-10-07T11:52:31.086Z,13.82
2023-10-07T11:55:03.116Z,14.60
2023-10-07T11:57:39.372Z,15.35
2023-10-07T12:00:24.768Z,14.63
2023-10-07T12:02:54.482Z,15.80
2023-10-07T12:05:22.770Z,15.18
2023-10-07T12:07:51.192Z,16.50
2023-10-07T12:10:23.588Z,15.35
2023-10-07T12:12:56.516Z,14.25
2023-10-07T12:15:26.808Z,13.00
2023-10-07T12:17:55.639Z,12.98
2023-10-07T12:20:25.753Z,13.00
2023-10-07T12:22:55.009Z,14.00
2023-10-07T12:25:25.195Z,13.23
2023-10-07T12:27:54.680Z,13.38
2023-10-07T12:30:28.137Z,12.85
2023-10-07T12:33:03.818Z,15.50
2023-10-07T12:35:36.540Z,13.80
2023-10-07T12:38:05.441Z,14.23
2023-10-07T12:40:33.789Z,14.50
2023-10-07T12:43:03.084Z,13.88
2023-10-07T12:45:32.466Z,14.93
2023-10-07T12:48:05.236Z,15.07
2023-10-07T12:50:35.177Z,15.25
2023-10-07T12:53:06.129Z,14.60
2023-10-07T12:55:38.655Z,15.02
2023-10-07T12:58:17.363Z,14.82
2023-10-07T13:00:46.066Z,14.52
2023-10-07T13:03:14.806Z,16.38
2023-10-07T13:05:47.091Z,16.00
2023-10-07T13:08:19.246Z,15.60
2023-10-07T13:10:47.882Z,17.25
2023-10-07T13:13:16.782Z,15.82
2023-10-07T13:15:47.358Z,15.63
2023-10-07T13:18:16.710Z,18.02
2023-10-07T13:20:46.083Z,16.60
2023-10-07T13:23:17.848Z,18.13
2023-10-07T13:25:47.669Z,17.20
2023-10-07T13:28:19.024Z,17.50
2023-10-07T13:30:47.810Z,19.02
2023-10-07T13:33:17.337Z,19.13
2023-10-07T13:35:47.238Z,16.98
2023-10-07T13:38:17.271Z,17.55
2023-10-07T13:40:46.294Z,17.33
2023-10-07T13:43:24.818Z,19.10
2023-10-07T13:45:53.873Z,17.30
2023-10-07T13:48:26.205Z,16.35
2023-10-07T13:51:01.779Z,16.85
2023-10-07T13:53:51.464Z,18.40
2023-10-07T13:56:44.974Z,20.30
2023-10-07T13:59:13.915Z,17.73
2023-10-07T14:01:44.086Z,16.90
2023-10-07T14:04:17.020Z,17.95
2023-10-07T14:06:49.648Z,18.25
2023-10-07T14:09:24.165Z,18.35
2023-10-07T14:11:53.590Z,17.35
2023-10-07T14:14:22.661Z,19.90
2023-10-07T14:16:57.478Z,17.88
2023-10-07T14:19:29.798Z,17.38
2023-10-07T14:22:04.009Z,17.95
2023-10-07T14:24:40.917Z,16.85
2023-10-07T14:27:16.847Z,19.70
2023-10-07T14:29:49.895Z,18.60
2023-10-07T14:32:20.162Z,17.65
2023-10-07T14:34:49.595Z,17.75
2023-10-07T14:37:25.595Z,19.30
2023-10-07T14:39:58.478Z,18.58
2023-10-07T14:42:27.167Z,18.58
2023-10-07T14:44:57.188Z,18.00
2023-10-07T14:47:26.320Z,20.00
2023-10-07T14:49:56.397Z,18.50
2023-10-07T14:52:25.292Z,18.17
2023-10-07T14:54:56.204Z,18.60
2023-10-07T14:57:32.775Z,18.45
2023-10-07T15:00:12.291Z,19.98
2023-10-07T15:02:41.679Z,19.35
2023-10-07T15:05:11.728Z,20.10
2023-10-07T15:07:43.375Z,18.35
2023-10-07T15:10:15.126Z,19.35
2023-10-07T15:12:48.784Z,19.88
2023-10-07T15:15:17.260Z,19.65
2023-10-07T15:17:49.171Z,20.30
2023-10-07T15:20:17.819Z,20.63
2023-10-07T15:22:46.404Z,21.00
2023-10-07T15:25:14.668Z,20.58
2023-10-07T15:27:43.682Z,19.38
2023-10-07T15:30:13.523Z,18.20
2023-10-07T15:32:45.846Z,19.75
2023-10-07T15:35:14.388Z,19.58
2023-10-07T15:37:47.011Z,20.08
2023-10-07T15:40:16.363Z,19.20
2023-10-07T15:42:47.199Z,20.08
2023-10-07T15:45:15.728Z,19.60
2023-10-07T15:47:44.187Z,20.15
2023-10-07T15:50:12.658Z,19.00
2023-10-07T15:52:41.183Z,19.88
2023-10-07T15:55:11.513Z,20.85
2023-10-07T15:57:39.937Z,17.92
2023-10-07T16:00:13.076Z,19.55
2023-10-07T16:02:41.716Z,18.67
2023-10-07T16:05:12.227Z,20.20
2023-10-07T16:07:40.574Z,18.15
2023-10-07T16:10:14.256Z,20.15
2023-10-07T16:12:44.140Z,18.80
2023-10-07T16:15:16.073Z,19.00
2023-10-07T16:17:44.460Z,18.67
2023-10-07T16:20:13.133Z,19.00
2023-10-07T16:22:41.898Z,20.30
2023-10-07T16:25:11.405Z,18.60
2023-10-07T16:27:39.891Z,18.92
2023-10-07T16:30:08.890Z,17.90
2023-10-07T16:32:37.708Z,17.65
2023-10-07T16:35:07.481Z,18.23
2023-10-07T16:37:35.913Z,18.15
2023-10-07T16:40:05.526Z,18.23
2023-10-07T16:42:33.856Z,17.55
2023-10-07T16:47:36.024Z,18.27
2023-10-07T16:50:04.963Z,19.10
2023-10-07T16:52:33.474Z,20.45
2023-10-07T16:55:08.404Z,19.50
2023-10-07T16:57:37.445Z,19.80
2023-10-07T17:00:07.000Z,19.25
2023-10-07T17:02:36.176Z,19.75
2023-10-07T17:05:05.117Z,18.80
2023-10-07T17:07:33.581Z,19.38
2023-10-07T17:10:02.412Z,18.48
2023-10-07T17:12:30.850Z,18.70
2023-10-07T17:14:59.376Z,20.25
2023-10-07T17:17:27.984Z,20.80
2023-10-07T17:19:56.442Z,20.77
2023-10-07T17:22:24.987Z,19.98
2023-10-07T17:24:53.746Z,19.67
2023-10-07T17:27:22.661Z,20.00
2023-10-07T17:29:51.807Z,19.42
2023-10-07T17:32:21.008Z,20.02
2023-10-07T17:34:49.815Z,20.60
2023-10-07T17:37:18.185Z,19.67
2023-10-07T17:39:46.904Z,21.30
2023-10-07T17:42:15.570Z,21.98
2023-10-07T17:44:43.863Z,23.63
2023-10-07T17:47:13.621Z,21.55
2023-10-07T17:49:42.262Z,20.50
2023-10-07T17:52:10.758Z,22.15
2023-10-07T17:54:39.335Z,20.88
2023-10-07T17:57:08.276Z,20.83
2023-10-07T17:59:36.921Z,20.98
2023-10-07T18:02:05.398Z,20.02
2023-10-07T18:04:35.861Z,20.98
2023-10-07T18:07:05.057Z,20.27
2023-10-07T18:09:33.699Z,19.70
2023-10-07T18:12:02.083Z,19.73
2023-10-07T18:14:33.879Z,18.85
2023-10-07T18:17:02.475Z,18.17
2023-10-07T18:19:33.362Z,19.20
2023-10-07T18:22:02.094Z,19.15
2023-10-07T18:24:31.499Z,18.23
2023-10-07T18:27:03.417Z,18.55
2023-10-07T18:29:33.031Z,17.83
2023-10-07T18:32:01.716Z,18.92
2023-10-07T18:34:30.390Z,18.10
2023-10-07T18:36:59.092Z,18.80
2023-10-07T18:39:27.776Z,18.45
2023-10-07T18:41:56.250Z,19.35
2023-10-07T18:44:25.153Z,18.65
2023-10-07T18:46:53.724Z,19.52
2023-10-07T18:49:22.163Z,18.38
2023-10-07T18:51:51.328Z,19.50
2023-10-07T18:54:19.688Z,18.67
2023-10-07T18:56:48.417Z,20.77
2023-10-07T18:59:17.710Z,20.42
2023-10-07T19:01:46.514Z,20.77
2023-10-07T19:04:14.968Z,21.88
2023-10-07T19:06:43.424Z,20.77
2023-10-07T19:09:13.946Z,19.52
2023-10-07T19:11:43.014Z,21.60
2023-10-07T19:14:11.558Z,19.80
2023-10-07T19:16:40.273Z,20.88
2023-10-07T19:19:12.037Z,20.42
2023-10-07T19:21:41.066Z,21.05
2023-10-07T19:24:09.558Z,21.58
2023-10-07T19:26:38.110Z,19.42
2023-10-07T19:29:10.774Z,20.40
2023-10-07T19:31:39.203Z,20.85
2023-10-07T19:34:07.853Z,19.85
2023-10-07T19:36:36.513Z,19.77
2023-10-07T19:39:05.533Z,20.20
2023-10-07T19:41:34.352Z,21.38
2023-10-07T19:44:03.113Z,20.50
2023-10-07T19:46:32.074Z,20.10
2023-10-07T19:49:00.631Z,21.52
2023-10-07T19:51:28.940Z,21.00
2023-10-07T19:53:57.424Z,21.77
2023-10-07T19:56:25.931Z,19.50
2023-10-07T19:58:56.026Z,20.63
2023-10-07T20:01:24.609Z,20.00
2023-10-07T20:03:57.033Z,21.33
2023-10-07T20:06:27.353Z,21.02
2023-10-07T20:08:56.757Z,20.77
2023-10-07T20:11:26.500Z,21.80
2023-10-07T20:13:55.311Z,21.38
2023-10-07T20:16:24.283Z,22.00
2023-10-07T20:18:53.772Z,21.25
2023-10-07T20:21:24.241Z,19.98
2023-10-07T20:23:52.738Z,21.77
2023-10-07T20:26:21.975Z,21.27
2023-10-07T20:28:50.645Z,21.42
2023-10-07T20:31:19.973Z,20.98
2023-10-07T20:33:48.485Z,22.17
2023-10-07T20:36:17.170Z,21.88
2023-10-07T20:38:46.512Z,20.58
2023-10-07T20:41:15.286Z,21.33
2023-10-07T20:43:45.142Z,22.52
2023-10-07T20:46:13.539Z,22.83
2023-10-07T20:48:42.487Z,21.27
2023-10-07T20:51:15.880Z,21.95
2023-10-07T20:53:49.053Z,22.15
2023-10-07T20:56:24.239Z,22.52
2023-10-07T20:58:52.665Z,21.40
2023-10-07T21:01:22.754Z,22.38
2023-10-07T21:03:53.209Z,22.52
2023-10-07T21:06:22.847Z,21.17
2023-10-07T21:08:53.075Z,21.60
2023-10-07T21:11:25.204Z,21.17
2023-10-07T21:13:59.313Z,22.20
2023-10-07T21:16:29.238Z,22.50
2023-10-07T21:19:00.284Z,21.60
2023-10-07T21:21:29.216Z,22.15
2023-10-07T21:23:58.012Z,21.77
2023-10-07T21:26:26.671Z,22.08
2023-10-07T21:28:56.720Z,23.55
2023-10-07T21:31:31.882Z,21.63
2023-10-07T21:34:00.382Z,21.33
2023-10-07T21:36:29.749Z,21.67
2023-10-07T21:38:58.117Z,22.42
2023-10-07T21:41:27.324Z,22.33
2023-10-07T21:43:55.538Z,21.25
2023-10-07T21:46:24.036Z,22.92
2023-10-07T21:48:52.448Z,23.73
2023-10-07T21:51:21.313Z,23.95
2023-10-07T21:53:50.540Z,22.75
2023-10-07T21:56:19.034Z,24.17
2023-10-07T21:58:47.345Z,25.15
2023-10-07T22:01:19.105Z,22.67
2023-10-07T22:03:49.722Z,23.73
2023-10-07T22:06:19.536Z,22.30
2023-10-07T22:08:48.602Z,23.88
2023-10-07T22:11:17.293Z,23.40
2023-10-07T22:13:45.734Z,24.95
2023-10-07T22:16:13.701Z,23.80
2023-10-07T22:18:42.578Z,24.75
2023-10-07T22:21:12.672Z,26.35
2023-10-07T22:23:40.830Z,24.52
2023-10-07T22:26:13.342Z,24.63
2023-10-07T22:28:41.442Z,24.83
2023-10-07T22:31:09.619Z,25.67
2023-10-07T22:33:42.980Z,24.98
2023-10-07T22:36:19.520Z,25.48
2023-10-07T22:38:55.045Z,25.25
2023-10-07T22:41:39.391Z,26.30
2023-10-07T22:44:23.472Z,25.25
2023-10-07T22:46:51.876Z,25.60
2023-10-07T22:49:28.039Z,24.92
2023-10-07T22:51:56.696Z,25.13
2023-10-07T22:54:33.913Z,24.98
2023-10-07T22:57:09.068Z,25.38
2023-10-07T22:59:39.892Z,24.55
2023-10-07T23:02:13.771Z,23.98
2023-10-07T23:04:48.846Z,25.17
2023-10-07T23:07:26.460Z,24.73
2023-10-07T23:10:00.487Z,24.30
2023-10-07T23:12:40.347Z,25.10
2023-10-07T23:15:23.990Z,26.40
2023-10-07T23:17:53.349Z,26.00
2023-10-07T23:20:21.463Z,25.67
2023-10-07T23:22:49.397Z,25.23
2023-10-07T23:25:22.978Z,25.45
2023-10-07T23:27:51.339Z,24.35
2023-10-07T23:30:29.415Z,24.77
2023-10-07T23:33:00.587Z,24.38
2023-10-07T23:35:33.411Z,24.63
2023-10-07T23:38:20.054Z,25.08
2023-10-07T23:40:53.533Z,25.00
2023-10-07T23:43:22.670Z,24.25
2023-10-07T23:45:52.849Z,25.25
2023-10-07T23:48:21.141Z,24.77
2023-10-07T23:50:57.750Z,25.00
2023-10-07T23:53:27.656Z,25.58
2023-10-07T23:56:10.337Z,25.77
2023-10-07T23:58:44.766Z,24.75
